馬公航空站 - ATIS

METAR RCQC 201400Z 03018KT 9999 FEW008 SCT021 22/17 Q1019 RMK A3011=

站台狀態:Online
最後更新:2018-10-20 22:30:03